首页
METAR-TAF:

METAR-TAF

机场 :

Rock Springs - Sweetwater County Airport

Rock Springs, 怀俄明州, 美国

纬度: 41-35-39N, 经度: 109-03-55W, 海拔: 2060米

当前天气观测

该预报发布于20分钟前的18:54 UTC
静风
温度 -8°C
湿度 92%
气压 1020 hPa
冻雾

METAR: KRKS 071854Z AUTO 00000KT M1/4SM FZFG VV001 M08/M09 A3013 RMK AO2 SLP266 T10831089

时间: 12:14 (19:14 UTC)

预报

该预报发布于1小时和36分钟前的17:38 UTC
预报有效从07日的 18点(UTC)到 08日的 18点(UTC)
风速6节,风向多变
能見度: 1.6公里
多云层高于6000英尺
轻雾
短暂存在
从 07日的 18点(UTC)到 07日的 20点(UTC)
能見度: 0.4公里
层高于100英尺
多云层高于6000英尺
从 07日的 2000点(UTC)
风速11节,风向西转西南
能見度: 10公里
散云层高于8000英尺
从 08日的 0000点(UTC)
风速8节,风向南转西南
能見度: 10公里
散云层高于6000英尺
多云层高于15000英尺
从 08日的 0600点(UTC)
风速7节,风向西南
能見度: 10公里
阴天层高于5000英尺

TAF: KRKS 071738Z 0718/0818 VRB06KT 1SM BR BKN060 TEMPO 0718/0720 1/4SM FG VV001 BKN060 FM072000 25011KT P6SM SCT080 FM080000 21008KT P6SM SCT060 BKN150 FM080600 23007KT P6SM OVC050

超过4000个机场的气象观测和天气预报(METAR&TAF报告)。

可查询的气象台以黄色和红色小点在地图上表示。

将鼠标移到小点上方,可查看气象台名称。

然后点击查看天气观测和预报。

如需切换地图:点击带黑十字的绿色按钮放大地图;点击带横线的绿色按钮缩小地图;或者点击绿色箭头查看邻近地区的地图。


METAR-TAF: